createdAt,value
2017-12-26T00:00:27.653Z,3.33
2017-12-26T00:02:55.176Z,3.47
2017-12-26T00:05:22.727Z,3.53
2017-12-26T00:07:50.248Z,3.00
2017-12-26T00:10:18.011Z,5.57
2017-12-26T00:12:45.543Z,7.90
2017-12-26T00:15:14.797Z,6.93
2017-12-26T00:17:42.338Z,6.40
2017-12-26T00:20:09.901Z,6.60
2017-12-26T00:22:37.632Z,5.93
2017-12-26T00:25:05.410Z,4.77
2017-12-26T00:27:33.157Z,5.07
2017-12-26T00:30:01.174Z,4.20
2017-12-26T00:32:29.554Z,4.63
2017-12-26T00:34:57.287Z,3.83
2017-12-26T00:37:24.902Z,3.37
2017-12-26T00:39:52.486Z,4.13
2017-12-26T00:42:20.824Z,3.63
2017-12-26T00:44:49.123Z,3.93
2017-12-26T00:47:17.406Z,3.73
2017-12-26T00:49:44.956Z,3.30
2017-12-26T00:52:13.242Z,4.00
2017-12-26T00:54:42.775Z,3.70
2017-12-26T00:57:10.321Z,3.43
2017-12-26T00:59:38.074Z,4.27
2017-12-26T01:02:05.587Z,3.67
2017-12-26T01:04:33.140Z,3.50
2017-12-26T01:07:01.069Z,3.50
2017-12-26T01:09:29.658Z,3.30
2017-12-26T01:11:57.264Z,3.20
2017-12-26T01:14:25.816Z,3.20
2017-12-26T01:16:54.389Z,3.10
2017-12-26T01:19:22.408Z,3.83
2017-12-26T01:21:50.006Z,3.40
2017-12-26T01:24:17.542Z,3.57
2017-12-26T01:26:45.108Z,3.53
2017-12-26T01:29:13.393Z,3.37
2017-12-26T01:31:40.915Z,3.50
2017-12-26T01:34:08.798Z,3.33
2017-12-26T01:36:37.407Z,3.43
2017-12-26T01:39:04.967Z,4.03
2017-12-26T01:41:32.483Z,4.63
2017-12-26T01:44:00.028Z,3.10
2017-12-26T01:46:27.554Z,4.13
2017-12-26T01:48:55.239Z,3.50
2017-12-26T01:51:22.886Z,3.70
2017-12-26T01:53:50.409Z,3.60
2017-12-26T01:56:17.967Z,3.47
2017-12-26T01:58:46.520Z,3.17
2017-12-26T02:01:14.244Z,3.57
2017-12-26T02:03:42.223Z,4.33
2017-12-26T02:06:09.790Z,3.00
2017-12-26T02:08:37.352Z,3.50
2017-12-26T02:11:05.014Z,3.17
2017-12-26T02:13:32.955Z,3.33
2017-12-26T02:16:00.494Z,2.60
2017-12-26T02:18:28.039Z,3.67
2017-12-26T02:20:56.937Z,3.70
2017-12-26T02:23:24.582Z,3.10
2017-12-26T02:25:52.105Z,2.93
2017-12-26T02:28:19.647Z,3.20
2017-12-26T02:30:47.202Z,2.97
2017-12-26T02:33:14.863Z,3.20
2017-12-26T02:35:42.478Z,4.50
2017-12-26T02:38:10.009Z,3.50
2017-12-26T02:40:37.559Z,3.57
2017-12-26T02:43:05.104Z,3.23
2017-12-26T02:45:32.869Z,3.40
2017-12-26T02:48:00.384Z,3.70
2017-12-26T02:50:27.927Z,3.37
2017-12-26T02:52:55.448Z,3.40
2017-12-26T02:55:23.072Z,2.93
2017-12-26T02:57:51.358Z,3.27
2017-12-26T03:00:19.988Z,2.67
2017-12-26T03:02:47.516Z,3.13
2017-12-26T03:05:15.061Z,3.17
2017-12-26T03:07:42.605Z,3.13
2017-12-26T03:10:10.174Z,3.00
2017-12-26T03:12:37.691Z,3.53
2017-12-26T03:15:06.124Z,3.20
2017-12-26T03:17:33.673Z,2.90
2017-12-26T03:20:01.196Z,2.53
2017-12-26T03:22:28.739Z,2.73
2017-12-26T03:24:56.796Z,3.17
2017-12-26T03:27:24.387Z,3.40
2017-12-26T03:29:51.910Z,2.63
2017-12-26T03:32:19.459Z,2.60
2017-12-26T03:34:46.994Z,2.33
2017-12-26T03:37:14.542Z,2.80
2017-12-26T03:39:42.828Z,3.23
2017-12-26T03:42:10.344Z,3.00
2017-12-26T03:44:37.877Z,2.80
2017-12-26T03:47:05.585Z,2.70
2017-12-26T03:49:33.934Z,2.53
2017-12-26T03:52:01.935Z,3.17
2017-12-26T03:54:30.513Z,2.97
2017-12-26T03:56:58.344Z,2.50
2017-12-26T03:59:26.200Z,2.77
2017-12-26T04:01:53.841Z,3.00
2017-12-26T04:04:21.400Z,3.00
2017-12-26T04:06:48.928Z,2.80
2017-12-26T04:09:17.239Z,2.70
2017-12-26T04:11:44.771Z,2.73
2017-12-26T04:14:13.067Z,2.50
2017-12-26T04:16:40.616Z,2.50
2017-12-26T04:19:08.125Z,2.83
2017-12-26T04:21:35.675Z,2.27
2017-12-26T04:24:03.211Z,2.43
2017-12-26T04:26:30.978Z,2.70
2017-12-26T04:28:59.462Z,2.20
2017-12-26T04:31:27.008Z,2.60
2017-12-26T04:33:54.733Z,2.23
2017-12-26T04:36:22.290Z,2.40
2017-12-26T04:38:49.811Z,2.27
2017-12-26T04:41:17.314Z,2.30
2017-12-26T04:43:44.867Z,2.40
2017-12-26T04:46:12.399Z,3.10
2017-12-26T04:48:39.947Z,2.70
2017-12-26T04:51:08.599Z,2.43
2017-12-26T04:53:36.236Z,2.33
2017-12-26T04:56:03.754Z,2.50
2017-12-26T04:58:31.303Z,2.80
2017-12-26T05:00:58.826Z,2.77
2017-12-26T05:03:27.134Z,2.73
2017-12-26T05:05:54.656Z,2.57
2017-12-26T05:08:22.944Z,2.60
2017-12-26T05:10:50.520Z,2.43
2017-12-26T05:13:18.047Z,2.80
2017-12-26T05:15:45.598Z,2.50
2017-12-26T05:18:13.131Z,2.40
2017-12-26T05:20:40.692Z,2.50
2017-12-26T05:23:08.210Z,2.50
2017-12-26T05:25:35.759Z,2.80
2017-12-26T05:28:03.300Z,2.93
2017-12-26T05:30:31.627Z,2.47
2017-12-26T05:32:59.139Z,3.00
2017-12-26T05:35:26.666Z,2.40
2017-12-26T05:37:54.226Z,2.60
2017-12-26T05:40:21.748Z,2.97
2017-12-26T05:42:49.298Z,4.03
2017-12-26T05:45:16.829Z,2.60
2017-12-26T05:47:45.412Z,2.50
2017-12-26T05:50:13.901Z,2.47
2017-12-26T05:52:42.135Z,2.47
2017-12-26T05:55:09.681Z,3.77
2017-12-26T05:57:37.235Z,3.37
2017-12-26T06:00:04.774Z,2.93
2017-12-26T06:02:32.314Z,3.43
2017-12-26T06:05:01.815Z,3.47
2017-12-26T06:07:29.341Z,2.77
2017-12-26T06:09:57.050Z,3.27
2017-12-26T06:12:24.750Z,11.20
2017-12-26T06:14:52.479Z,11.60
2017-12-26T06:17:20.020Z,8.10
2017-12-26T06:19:47.575Z,12.10
2017-12-26T06:22:15.863Z,11.97
2017-12-26T06:24:43.411Z,5.40
2017-12-26T06:27:11.700Z,5.63
2017-12-26T06:29:40.445Z,4.17
2017-12-26T06:32:08.075Z,1.60
2017-12-26T06:34:35.694Z,1.70
2017-12-26T06:37:04.107Z,9.33
2017-12-26T06:39:31.610Z,5.40
2017-12-26T06:41:59.321Z,1.93
2017-12-26T06:44:26.844Z,2.20
2017-12-26T06:46:54.441Z,1.30
2017-12-26T06:49:22.947Z,2.23
2017-12-26T06:51:51.455Z,3.43
2017-12-26T06:54:19.002Z,5.53
2017-12-26T06:56:46.537Z,4.22
2017-12-26T06:59:14.600Z,1.80
2017-12-26T07:01:42.498Z,5.83
2017-12-26T07:04:12.682Z,3.40
2017-12-26T07:06:40.421Z,1.30
2017-12-26T07:09:07.989Z,2.10
2017-12-26T07:11:35.618Z,5.30
2017-12-26T07:14:03.306Z,1.67
2017-12-26T07:16:33.439Z,2.90
2017-12-26T07:19:01.307Z,23.57
2017-12-26T07:21:34.351Z,2.80
2017-12-26T07:24:01.911Z,6.03
2017-12-26T07:26:30.228Z,8.07
2017-12-26T07:28:59.272Z,4.30
2017-12-26T07:31:27.593Z,6.73
2017-12-26T07:33:55.118Z,1.90
2017-12-26T07:36:24.150Z,1.60
2017-12-26T07:38:51.695Z,1.67
2017-12-26T07:41:19.239Z,1.73
2017-12-26T07:43:47.735Z,1.40
2017-12-26T07:46:16.487Z,2.10
2017-12-26T07:48:45.066Z,2.17
2017-12-26T07:51:14.402Z,1.63
2017-12-26T07:53:42.182Z,1.47
2017-12-26T07:56:09.949Z,1.50
2017-12-26T07:58:37.726Z,1.50
2017-12-26T08:01:05.299Z,1.40
2017-12-26T08:03:32.867Z,5.87
2017-12-26T08:06:00.625Z,3.93
2017-12-26T08:08:28.459Z,2.50
2017-12-26T08:10:55.986Z,2.33
2017-12-26T08:13:23.559Z,1.40
2017-12-26T08:15:51.095Z,2.73
2017-12-26T08:18:18.780Z,2.77
2017-12-26T08:20:46.841Z,3.00
2017-12-26T08:23:15.351Z,2.60
2017-12-26T08:25:42.875Z,2.77
2017-12-26T08:28:11.187Z,3.93
2017-12-26T08:30:38.744Z,1.80
2017-12-26T08:33:07.245Z,1.73
2017-12-26T08:35:34.786Z,4.17
2017-12-26T08:38:02.870Z,3.90
2017-12-26T08:40:30.944Z,2.40
2017-12-26T08:42:58.464Z,1.77
2017-12-26T08:45:26.014Z,2.33
2017-12-26T08:47:53.535Z,2.30
2017-12-26T08:50:21.089Z,1.70
2017-12-26T08:52:48.610Z,1.50
2017-12-26T08:55:16.187Z,1.50
2017-12-26T08:57:43.725Z,1.63
2017-12-26T09:00:11.249Z,1.73
2017-12-26T09:02:39.075Z,1.50
2017-12-26T09:05:06.595Z,1.80
2017-12-26T09:07:35.407Z,1.30
2017-12-26T09:10:04.333Z,1.30
2017-12-26T09:12:32.065Z,1.47
2017-12-26T09:15:00.551Z,1.80
2017-12-26T09:17:28.737Z,1.63
2017-12-26T09:19:56.913Z,2.03
2017-12-26T09:22:24.855Z,3.90
2017-12-26T09:24:52.384Z,2.00
2017-12-26T09:27:19.924Z,3.60
2017-12-26T09:29:47.501Z,3.10
2017-12-26T09:32:15.023Z,3.03
2017-12-26T09:34:43.016Z,2.50
2017-12-26T09:37:10.544Z,2.50
2017-12-26T09:39:38.592Z,1.90
2017-12-26T09:42:06.339Z,1.90
2017-12-26T09:44:35.844Z,1.70
2017-12-26T09:47:03.439Z,1.50
2017-12-26T09:49:31.237Z,1.23
2017-12-26T09:52:00.076Z,1.10
2017-12-26T09:54:29.053Z,1.20
2017-12-26T09:56:56.613Z,1.50
2017-12-26T09:59:24.166Z,1.70
2017-12-26T10:01:51.706Z,1.00
2017-12-26T10:04:20.430Z,1.37
2017-12-26T10:06:48.006Z,1.60
2017-12-26T10:09:15.749Z,1.30
2017-12-26T10:11:43.350Z,1.17
2017-12-26T10:14:10.896Z,1.30
2017-12-26T10:16:38.414Z,1.37
2017-12-26T10:19:06.190Z,1.07
2017-12-26T10:21:33.856Z,3.30
2017-12-26T10:24:01.395Z,1.20
2017-12-26T10:26:29.876Z,1.40
2017-12-26T10:28:57.417Z,1.57
2017-12-26T10:31:25.012Z,1.43
2017-12-26T10:33:52.552Z,1.37
2017-12-26T10:36:21.024Z,1.20
2017-12-26T10:38:49.351Z,1.20
2017-12-26T10:41:17.070Z,1.10
2017-12-26T10:43:45.354Z,1.40
2017-12-26T10:46:13.667Z,5.90
2017-12-26T10:48:41.462Z,1.10
2017-12-26T10:51:09.018Z,1.30
2017-12-26T10:53:37.047Z,1.47
2017-12-26T10:56:06.755Z,1.20
2017-12-26T10:58:35.524Z,1.20
2017-12-26T11:01:04.128Z,1.10
2017-12-26T11:03:32.900Z,1.50
2017-12-26T11:06:00.780Z,1.80
2017-12-26T11:08:28.444Z,1.60
2017-12-26T11:10:55.974Z,1.50
2017-12-26T11:13:23.687Z,1.30
2017-12-26T11:15:52.201Z,1.20
2017-12-26T11:18:19.834Z,1.30
2017-12-26T11:20:47.367Z,1.20
2017-12-26T11:23:16.876Z,2.50
2017-12-26T11:25:46.029Z,1.13
2017-12-26T11:28:13.660Z,1.20
2017-12-26T11:30:41.375Z,1.33
2017-12-26T11:33:09.608Z,0.90
2017-12-26T11:35:37.171Z,1.13
2017-12-26T11:38:04.736Z,1.17
2017-12-26T11:40:32.870Z,1.20
2017-12-26T11:43:00.831Z,1.00
2017-12-26T11:45:28.716Z,2.50
2017-12-26T11:47:57.350Z,2.13
2017-12-26T11:50:24.903Z,1.30
2017-12-26T11:52:53.729Z,1.50
2017-12-26T11:55:21.291Z,1.77
2017-12-26T11:57:49.330Z,1.20
2017-12-26T12:00:16.911Z,1.10
2017-12-26T12:02:45.069Z,3.57
2017-12-26T12:05:12.719Z,3.70
2017-12-26T12:07:41.032Z,2.50
2017-12-26T12:10:08.547Z,2.50
2017-12-26T12:12:36.866Z,1.83
2017-12-26T12:15:05.339Z,1.63
2017-12-26T12:17:32.867Z,1.07
2017-12-26T12:20:01.767Z,1.10
2017-12-26T12:22:29.804Z,1.30
2017-12-26T12:24:58.113Z,1.10
2017-12-26T12:27:26.272Z,1.10
2017-12-26T12:29:53.933Z,1.40
2017-12-26T12:32:22.248Z,1.03
2017-12-26T12:34:49.842Z,1.40
2017-12-26T12:37:17.364Z,1.10
2017-12-26T12:39:44.904Z,1.20
2017-12-26T12:42:12.460Z,1.20
2017-12-26T12:44:40.345Z,0.90
2017-12-26T12:47:08.277Z,1.20
2017-12-26T12:49:36.059Z,1.20
2017-12-26T12:52:03.827Z,1.23
2017-12-26T12:54:32.152Z,1.30
2017-12-26T12:57:00.088Z,1.23
2017-12-26T12:59:28.668Z,1.10
2017-12-26T13:01:56.363Z,1.10
2017-12-26T13:04:23.928Z,1.00
2017-12-26T13:06:52.430Z,1.30
2017-12-26T13:09:20.880Z,1.00
2017-12-26T13:11:48.399Z,1.20
2017-12-26T13:14:16.224Z,1.33
2017-12-26T13:16:43.939Z,1.10
2017-12-26T13:19:13.447Z,1.00
2017-12-26T13:21:40.992Z,1.10
2017-12-26T13:24:08.550Z,1.70
2017-12-26T13:26:36.076Z,1.00
2017-12-26T13:29:03.618Z,1.13
2017-12-26T13:31:31.210Z,1.33
2017-12-26T13:33:59.530Z,1.57
2017-12-26T13:36:27.089Z,1.20
2017-12-26T13:38:55.290Z,2.60
2017-12-26T13:41:23.214Z,1.30
2017-12-26T13:43:50.746Z,1.10
2017-12-26T13:46:19.608Z,1.20
2017-12-26T13:48:48.223Z,1.37
2017-12-26T13:51:16.115Z,1.10
2017-12-26T13:53:43.671Z,1.10
2017-12-26T13:56:11.437Z,1.20
2017-12-26T13:58:38.951Z,1.10
2017-12-26T14:01:06.491Z,1.10
2017-12-26T14:03:34.258Z,1.00
2017-12-26T14:06:01.976Z,1.37
2017-12-26T14:08:29.638Z,1.43
2017-12-26T14:10:57.288Z,1.20
2017-12-26T14:13:25.104Z,1.30
2017-12-26T14:15:52.641Z,1.17
2017-12-26T14:18:20.956Z,1.30
2017-12-26T14:20:49.486Z,1.00
2017-12-26T14:23:17.453Z,1.77
2017-12-26T14:25:45.006Z,1.57
2017-12-26T14:28:12.540Z,1.90
2017-12-26T14:30:40.859Z,1.27
2017-12-26T14:33:09.738Z,1.40
2017-12-26T14:35:37.417Z,1.50
2017-12-26T14:38:04.968Z,1.53
2017-12-26T14:40:32.540Z,1.53
2017-12-26T14:43:00.072Z,1.50
2017-12-26T14:45:28.779Z,1.40
2017-12-26T14:47:56.719Z,1.63
2017-12-26T14:50:24.278Z,1.90
2017-12-26T14:52:51.951Z,2.10
2017-12-26T14:55:19.613Z,2.30
2017-12-26T14:57:47.397Z,2.20
2017-12-26T15:00:15.473Z,1.80
2017-12-26T15:02:43.019Z,1.90
2017-12-26T15:05:10.559Z,2.07
2017-12-26T15:07:39.467Z,1.80
2017-12-26T15:10:07.118Z,0.90
2017-12-26T15:12:34.680Z,1.77
2017-12-26T15:15:03.202Z,1.30
2017-12-26T15:17:31.704Z,1.53
2017-12-26T15:19:59.243Z,1.40
2017-12-26T15:22:27.389Z,1.00
2017-12-26T15:24:55.071Z,1.50
2017-12-26T15:27:22.616Z,2.37
2017-12-26T15:29:50.224Z,2.70
2017-12-26T15:32:18.949Z,2.13
2017-12-26T15:34:47.428Z,3.07
2017-12-26T15:37:15.068Z,1.87
2017-12-26T15:39:42.828Z,1.83
2017-12-26T15:42:10.355Z,1.60
2017-12-26T15:44:38.503Z,1.80
2017-12-26T15:47:06.053Z,1.30
2017-12-26T15:49:34.914Z,1.63
2017-12-26T15:52:03.507Z,2.70
2017-12-26T15:54:31.072Z,1.57
2017-12-26T15:56:58.633Z,2.63
2017-12-26T15:59:26.143Z,2.63
2017-12-26T16:01:53.779Z,2.77
2017-12-26T16:04:22.092Z,3.20
2017-12-26T16:06:50.413Z,6.73
2017-12-26T16:09:17.946Z,5.40
2017-12-26T16:11:45.461Z,4.23
2017-12-26T16:14:13.316Z,4.70
2017-12-26T16:16:42.988Z,4.30
2017-12-26T16:19:10.877Z,3.90
2017-12-26T16:21:38.827Z,5.43
2017-12-26T16:24:06.995Z,4.77
2017-12-26T16:26:35.996Z,4.40
2017-12-26T16:29:03.544Z,5.80
2017-12-26T16:31:31.076Z,5.67
2017-12-26T16:34:04.403Z,4.43
2017-12-26T16:36:32.985Z,7.77
2017-12-26T16:39:01.673Z,8.20
2017-12-26T16:41:29.981Z,13.40
2017-12-26T16:43:58.124Z,10.40
2017-12-26T16:46:25.685Z,5.90
2017-12-26T16:48:54.579Z,4.00
2017-12-26T16:51:23.170Z,8.90
2017-12-26T16:53:50.909Z,12.80
2017-12-26T16:56:20.454Z,7.43
2017-12-26T16:58:48.539Z,6.17
2017-12-26T17:01:16.393Z,5.15
2017-12-26T17:03:44.017Z,4.40
2017-12-26T17:06:11.850Z,4.37
2017-12-26T17:08:39.425Z,6.70
2017-12-26T17:11:07.485Z,5.80
2017-12-26T17:13:35.799Z,5.10
2017-12-26T17:16:04.026Z,5.90
2017-12-26T17:18:32.222Z,6.67
2017-12-26T17:21:01.301Z,7.13
2017-12-26T17:23:29.935Z,8.03
2017-12-26T17:25:59.760Z,6.57
2017-12-26T17:28:27.294Z,8.47
2017-12-26T17:30:56.506Z,10.00
2017-12-26T17:33:24.271Z,12.03
2017-12-26T17:35:51.898Z,12.93
2017-12-26T17:38:19.430Z,10.80
2017-12-26T17:40:48.053Z,11.47
2017-12-26T17:43:15.818Z,9.40
2017-12-26T17:45:43.633Z,9.57
2017-12-26T17:48:11.645Z,7.33
2017-12-26T17:50:39.308Z,7.70
2017-12-26T17:53:06.867Z,14.00
2017-12-26T17:55:35.360Z,10.07
2017-12-26T17:58:02.951Z,10.90
2017-12-26T18:00:30.503Z,16.60
2017-12-26T18:02:58.055Z,14.67
2017-12-26T18:05:25.617Z,14.23
2017-12-26T18:07:53.456Z,13.50
2017-12-26T18:10:21.043Z,9.90
2017-12-26T18:12:48.568Z,11.00
2017-12-26T18:15:16.162Z,8.17
2017-12-26T18:17:43.732Z,10.97
2017-12-26T18:20:11.287Z,9.10
2017-12-26T18:22:39.245Z,10.47
2017-12-26T18:25:06.865Z,10.90
2017-12-26T18:27:34.430Z,11.03
2017-12-26T18:30:02.238Z,11.80
2017-12-26T18:32:29.782Z,8.60
2017-12-26T18:34:57.302Z,6.77
2017-12-26T18:37:26.006Z,6.30
2017-12-26T18:39:54.457Z,9.40
2017-12-26T18:42:22.767Z,8.70
2017-12-26T18:44:50.308Z,9.00
2017-12-26T18:47:18.013Z,7.00
2017-12-26T18:49:46.517Z,7.57
2017-12-26T18:52:14.904Z,6.67
2017-12-26T18:54:42.459Z,5.23
2017-12-26T18:57:10.002Z,6.10
2017-12-26T18:59:37.518Z,6.40
2017-12-26T19:02:05.038Z,5.57
2017-12-26T19:04:32.582Z,4.87
2017-12-26T19:07:00.106Z,5.30
2017-12-26T19:09:27.986Z,5.00
2017-12-26T19:11:55.536Z,4.80
2017-12-26T19:14:23.181Z,4.87
2017-12-26T19:16:50.708Z,6.50
2017-12-26T19:19:18.242Z,6.00
2017-12-26T19:21:45.760Z,6.47
2017-12-26T19:24:13.302Z,7.47
2017-12-26T19:26:40.819Z,8.40
2017-12-26T19:29:09.110Z,9.63
2017-12-26T19:31:36.686Z,9.33
2017-12-26T19:34:05.396Z,8.47
2017-12-26T19:36:32.939Z,8.90
2017-12-26T19:39:00.465Z,6.60
2017-12-26T19:41:28.772Z,6.40
2017-12-26T19:43:57.255Z,6.60
2017-12-26T19:46:24.810Z,5.97
2017-12-26T19:48:52.326Z,5.87
2017-12-26T19:51:19.869Z,5.90
2017-12-26T19:53:47.419Z,11.00
2017-12-26T19:56:14.941Z,10.07
2017-12-26T19:58:42.495Z,15.43
2017-12-26T20:01:10.838Z,9.37
2017-12-26T20:03:38.383Z,20.60
2017-12-26T20:06:06.878Z,25.90
2017-12-26T20:08:34.410Z,6.30
2017-12-26T20:11:02.153Z,5.23
2017-12-26T20:13:29.782Z,4.10
2017-12-26T20:15:57.298Z,4.20
2017-12-26T20:18:24.830Z,4.20
2017-12-26T20:20:52.385Z,4.00
2017-12-26T20:23:19.914Z,7.37
2017-12-26T20:25:47.465Z,6.43
2017-12-26T20:28:21.410Z,7.60
2017-12-26T20:30:50.918Z,6.03
2017-12-26T20:33:18.438Z,6.63
2017-12-26T20:35:46.761Z,4.70
2017-12-26T20:38:14.274Z,5.53
2017-12-26T20:40:41.822Z,5.30
2017-12-26T20:43:09.848Z,3.53
2017-12-26T20:45:37.370Z,4.63
2017-12-26T20:48:05.681Z,4.43
2017-12-26T20:50:34.171Z,3.70
2017-12-26T20:53:01.726Z,3.37
2017-12-26T20:55:29.255Z,5.00
2017-12-26T20:57:56.803Z,3.97
2017-12-26T21:00:24.327Z,3.70
2017-12-26T21:02:51.875Z,2.97
2017-12-26T21:05:19.401Z,3.17
2017-12-26T21:07:46.938Z,3.37
2017-12-26T21:10:15.233Z,4.17
2017-12-26T21:12:43.113Z,3.57
2017-12-26T21:15:10.663Z,3.70
2017-12-26T21:17:38.340Z,3.13
2017-12-26T21:20:06.526Z,4.45
2017-12-26T21:22:34.055Z,4.00
2017-12-26T21:25:01.603Z,4.67
2017-12-26T21:27:29.118Z,3.63
2017-12-26T21:29:56.671Z,3.50
2017-12-26T21:32:24.326Z,3.93
2017-12-26T21:34:51.872Z,3.60
2017-12-26T21:37:19.390Z,3.77
2017-12-26T21:39:48.647Z,2.70
2017-12-26T21:42:18.138Z,2.80
2017-12-26T21:44:45.670Z,3.00
2017-12-26T21:47:13.559Z,2.80
2017-12-26T21:49:41.079Z,3.70
2017-12-26T21:52:09.387Z,3.37
2017-12-26T21:54:36.908Z,3.50
2017-12-26T21:57:05.222Z,2.47
2017-12-26T21:59:32.748Z,2.57
2017-12-26T22:02:01.059Z,2.60
2017-12-26T22:04:28.591Z,2.53
2017-12-26T22:06:56.125Z,2.33
2017-12-26T22:09:23.682Z,2.70
2017-12-26T22:11:51.209Z,3.20
2017-12-26T22:14:18.747Z,3.63
2017-12-26T22:16:46.423Z,3.13
2017-12-26T22:19:14.046Z,4.23
2017-12-26T22:21:41.817Z,4.53
2017-12-26T22:24:09.355Z,2.27
2017-12-26T22:26:37.671Z,2.03
2017-12-26T22:29:05.185Z,2.30
2017-12-26T22:31:32.726Z,2.17
2017-12-26T22:34:01.007Z,2.10
2017-12-26T22:36:28.557Z,1.50
2017-12-26T22:38:57.043Z,1.57
2017-12-26T22:41:24.588Z,1.60
2017-12-26T22:43:52.097Z,1.50
2017-12-26T22:46:19.642Z,1.30
2017-12-26T22:48:47.913Z,1.40
2017-12-26T22:51:16.200Z,1.70
2017-12-26T22:53:44.507Z,1.43
2017-12-26T22:56:12.028Z,1.40
2017-12-26T22:58:40.532Z,1.57
2017-12-26T23:01:09.026Z,2.00
2017-12-26T23:03:36.573Z,1.67
2017-12-26T23:06:04.099Z,1.43
2017-12-26T23:08:31.650Z,1.40
2017-12-26T23:10:59.195Z,1.80
2017-12-26T23:13:26.730Z,1.90
2017-12-26T23:16:00.886Z,1.90
2017-12-26T23:18:28.430Z,2.10
2017-12-26T23:20:59.891Z,2.00
2017-12-26T23:23:33.111Z,1.50
2017-12-26T23:26:06.211Z,1.67
2017-12-26T23:28:39.437Z,1.60
2017-12-26T23:31:12.530Z,1.60
2017-12-26T23:33:45.732Z,2.00
2017-12-26T23:36:18.770Z,2.50
2017-12-26T23:38:51.982Z,2.20
2017-12-26T23:41:25.085Z,2.23
2017-12-26T23:46:58.554Z,2.00
2017-12-26T23:49:32.516Z,1.97
2017-12-26T23:52:05.719Z,2.03
2017-12-26T23:54:38.956Z,1.60
2017-12-26T23:57:13.089Z,2.00
2017-12-26T23:59:46.206Z,1.87
